Flight Track Log - Related Links

Times and Time Zones

All times are in EDT time to prevent confusion due to time zone crossing. See the ASQ5745 flight status page for this flight to view local times or setup timezone preferences in your user account.

Time Position Orientation Groundspeed Altitude Reporting Facility
EDT Latitude Longitude Course Direction KTS MPH feet Rate Location/Type
Sat 08:17:27 AM 38.9833 -77.4333 358° North 179 206 2,100  Level Potomac TRACON
Sat 08:19:17 AM 39.1078 -77.4400 358° North 267 307 6,100 2,351 Climbing Washington Center
Sat 08:20:18 AM 39.1911 -77.4422 359° North 280 322 8,800 2,262 Climbing Washington Center
Sat 08:21:19 AM 39.2764 -77.4442 359° North 296 341 10,700 1,513 Climbing Washington Center
Sat 08:22:17 AM 39.3703 -77.4467 359° North 315 362 11,800 1,412 Climbing Washington Center
Sat 08:23:52 AM 39.5425 -77.4533 358° North 360 414 14,300 1,462 Climbing New York Center
Sat 08:24:53 AM 39.6428 -77.4522 360° North 386 444 15,600 1,240 Climbing New York Center
Sat 08:25:53 AM 39.7592 -77.4228 11° North 391 450 16,800 1,119 Climbing New York Center
Sat 08:26:51 AM 39.8569 -77.3536 28° Northeast 391 450 17,800 1,068 Climbing New York Center
Sat 08:27:51 AM 39.9439 -77.2858 31° Northeast 401 461 18,900 1,100 Climbing New York Center
Sat 08:28:51 AM 40.0506 -77.2036 31° Northeast 401 461 20,000 836 Climbing New York Center
Sat 08:29:53 AM 40.1422 -77.1306 31° Northeast 408 470 20,600 541 Climbing New York Center
Sat 08:30:53 AM 40.2444 -77.0500 31° Northeast 413 475 21,100 500 Climbing New York Center
Sat 08:31:53 AM 40.3489 -76.9669 31° Northeast 424 488 21,600 508 Climbing New York Center
Sat 08:32:51 AM 40.4597 -76.8842 30° Northeast 441 507 22,100 555 Climbing New York Center
Sat 08:33:52 AM 40.5661 -76.7981 32° Northeast 446 513 22,700 550 Climbing New York Center
Sat 08:34:51 AM 40.6725 -76.7142 31° Northeast 446 513 23,200 500 Climbing New York Center
Sat 08:35:52 AM 40.7831 -76.6278 31° Northeast 446 513 23,700 443 Climbing New York Center
Sat 08:36:53 AM 40.9044 -76.5753 18° North 446 513 24,100 454 Climbing New York Center
Sat 08:37:51 AM 41.0275 -76.5333 14° North 451 519 24,600 559 Climbing New York Center
Sat 08:38:51 AM 41.1522 -76.4944 13° North 451 519 25,200 545 Climbing New York Center
Sat 08:39:52 AM 41.2750 -76.4550 14° North 451 519 25,700 496 Climbing New York Center
Sat 08:40:52 AM 41.4019 -76.4106 15° North 459 528 26,200 496 Climbing New York Center
Sat 08:41:53 AM 41.5292 -76.3631 16° North 465 535 26,700 403 Climbing New York Center
Sat 08:42:51 AM 41.6500 -76.3175 16° North 460 529 27,000 -78 Climbing New York Center
Sat 08:44:27 AM 41.8497 -76.2169 21° North 488 562 26,500 -615 Descending Boston Center
Sat 08:45:27 AM 41.9214 -76.0592 59° Northeast 458 527 25,400 -1,136 Descending Boston Center
Sat 08:46:39 AM 41.9944 -75.8622 63° Northeast 473 544 24,000 -636 Descending Boston Center
Sat 08:47:39 AM 42.0575 -75.7036 62° Northeast 480 552 24,000  Level Boston Center
Sat 08:48:39 AM 42.1183 -75.5386 64° Northeast 466 536 24,000  Level Boston Center
Sat 08:49:39 AM 42.1744 -75.3844 64° Northeast 454 522 24,000 -200 Level Boston Center
Sat 08:50:39 AM 42.2306 -75.2300 64° Northeast 454 522 23,600 -1,300 Descending Boston Center
Sat 08:51:39 AM 42.2817 -75.0950 63° Northeast 454 522 21,400 -2,300 Descending Boston Center
Sat 08:52:39 AM 42.3397 -74.9344 64° Northeast 453 521 19,000 -2,450 Descending Boston Center
Sat 08:53:39 AM 42.3975 -74.7681 65° Northeast 453 521 16,500 -2,374 Descending Boston Center
Sat 08:54:10 AM 42.4281 -74.6989 59° Northeast 433 498 15,400 -2,308 Descending Boston Center
Sat 08:55:10 AM 42.4744 -74.5625 65° Northeast 400 460 13,000 -2,281 Descending Boston Center
Sat 08:56:11 AM 42.5122 -74.4258 69° East 371 427 10,800 -1,453 Descending Boston Center
Sat 08:57:18 AM 42.5228 -74.2936 84° East 278 320 9,900 -960 Descending Boston Center
Sat 08:57:51 AM 42.5256 -74.2572 84° East 301 346 9,200 -1,806 Descending Boston Center
Sat 08:58:51 AM 42.5333 -74.1475 84° East 271 312 7,100 -2,100 Descending Boston Center
Sat 08:59:51 AM 42.5414 -74.0350 84° East 266 306 5,000 -1,900 Descending Boston Center
Sat 09:00:51 AM 42.5447 -73.9478 87° East 266 306 3,300 -1,000 Descending Boston Center
Sat 09:01:51 AM 42.5519 -73.8550 84° East 243 280 3,000 -200 Descending Boston Center
Sat 09:02:21 AM 42.5567 -73.8183 80° East 204 235 3,000 -600 Level Boston Center
Sat 09:02:51 AM 42.5800 -73.7964 35° Northeast 197 227 2,400 -1,200 Descending Boston Center

Login

Don't have an account? Register now (free) for customized features, flight alerts, and more!